Willow Park, Texas
Current Conditions -  °F | °C
As of 9:53 AM on Sunday 21 Dec 2014 (Local Time) from KMWL Reporting Station
Haze Haze  
Wind Chill: 41°   Ceiling: 1100
Heat Index: 47°   Visibility: 3mi
Dew Point: 44°   Wind: 14mph
Humidity: 90%   Direction: 150°SSE
Pressure: 30.03"   Gusts: NA
Location:  32.7558°N, 97.7972°W
Report Text: KMWL 211553Z AUTO 15012KT 3SM BR OVC011 08/07 A3003 RMK AO2 SLP167 T00830067
Loading
Personal Weather Stations






























Interactive Weather Map New forecast layout! Learn more

10-Day Weather Forecast

Advertisements
Track Severe Weather on mobile